sensor_id;sensor_type;location;lat;lon;timestamp;pressure;altitude;pressure_sealevel;temperature;humidity
49779;BME280;36217;60.232;24.776;2023-02-15T00:02:02;102309.53;;;0.65;100.00
49779;BME280;36217;60.232;24.776;2023-02-15T00:04:39;102310.89;;;0.88;100.00
49779;BME280;36217;60.232;24.776;2023-02-15T00:07:18;102311.95;;;1.11;100.00
49779;BME280;36217;60.232;24.776;2023-02-15T00:09:55;102308.48;;;0.62;100.00
49779;BME280;36217;60.232;24.776;2023-02-15T00:12:32;102306.37;;;0.60;100.00
49779;BME280;36217;60.232;24.776;2023-02-15T00:15:09;102305.79;;;0.79;100.00
49779;BME280;36217;60.232;24.776;2023-02-15T00:17:46;102308.11;;;0.92;100.00
49779;BME280;36217;60.232;24.776;2023-02-15T00:20:23;102304.97;;;0.61;100.00
49779;BME280;36217;60.232;24.776;2023-02-15T00:23:00;102307.15;;;0.94;100.00
49779;BME280;36217;60.232;24.776;2023-02-15T00:25:37;102308.92;;;0.80;100.00
49779;BME280;36217;60.232;24.776;2023-02-15T00:28:13;102308.72;;;0.63;100.00
49779;BME280;36217;60.232;24.776;2023-02-15T00:30:50;102308.39;;;0.60;100.00
49779;BME280;36217;60.232;24.776;2023-02-15T00:33:29;102312.74;;;0.67;100.00
49779;BME280;36217;60.232;24.776;2023-02-15T00:36:08;102311.39;;;0.65;100.00
49779;BME280;36217;60.232;24.776;2023-02-15T00:38:45;102311.70;;;0.55;100.00
49779;BME280;36217;60.232;24.776;2023-02-15T00:41:22;102312.64;;;0.62;100.00
49779;BME280;36217;60.232;24.776;2023-02-15T00:44:09;102312.83;;;0.55;100.00
49779;BME280;36217;60.232;24.776;2023-02-15T00:46:47;102311.60;;;0.94;100.00
49779;BME280;36217;60.232;24.776;2023-02-15T00:49:23;102309.11;;;0.65;100.00
49779;BME280;36217;60.232;24.776;2023-02-15T00:52:00;102307.01;;;0.57;100.00
49779;BME280;36217;60.232;24.776;2023-02-15T00:54:37;102301.81;;;0.82;100.00
49779;BME280;36217;60.232;24.776;2023-02-15T00:57:13;102302.49;;;0.55;100.00
49779;BME280;36217;60.232;24.776;2023-02-15T00:59:50;102300.88;;;0.96;100.00
49779;BME280;36217;60.232;24.776;2023-02-15T01:02:27;102300.02;;;0.80;100.00
49779;BME280;36217;60.232;24.776;2023-02-15T01:05:04;102300.48;;;0.88;100.00
49779;BME280;36217;60.232;24.776;2023-02-15T01:07:41;102302.37;;;0.81;100.00
49779;BME280;36217;60.232;24.776;2023-02-15T01:10:18;102302.15;;;0.94;100.00
49779;BME280;36217;60.232;24.776;2023-02-15T01:12:56;102298.70;;;0.46;100.00
49779;BME280;36217;60.232;24.776;2023-02-15T01:15:34;102300.60;;;0.54;100.00
49779;BME280;36217;60.232;24.776;2023-02-15T01:18:11;102298.11;;;0.53;100.00
49779;BME280;36217;60.232;24.776;2023-02-15T01:20:48;102292.08;;;1.06;100.00
49779;BME280;36217;60.232;24.776;2023-02-15T01:23:26;102290.83;;;0.50;100.00
49779;BME280;36217;60.232;24.776;2023-02-15T01:26:06;102289.10;;;0.73;100.00
49779;BME280;36217;60.232;24.776;2023-02-15T01:28:43;102287.61;;;0.46;100.00
49779;BME280;36217;60.232;24.776;2023-02-15T01:31:22;102284.40;;;0.46;100.00
49779;BME280;36217;60.232;24.776;2023-02-15T01:33:59;102284.59;;;0.69;100.00
49779;BME280;36217;60.232;24.776;2023-02-15T01:36:46;102289.70;;;0.97;100.00
49779;BME280;36217;60.232;24.776;2023-02-15T01:39:23;102290.39;;;1.04;100.00
49779;BME280;36217;60.232;24.776;2023-02-15T01:42:00;102288.40;;;0.37;100.00
49779;BME280;36217;60.232;24.776;2023-02-15T01:44:55;102290.34;;;0.71;100.00
49779;BME280;36217;60.232;24.776;2023-02-15T01:47:37;102287.34;;;0.31;100.00
49779;BME280;36217;60.232;24.776;2023-02-15T01:50:20;102286.60;;;0.21;100.00
49779;BME280;36217;60.232;24.776;2023-02-15T01:53:03;102285.76;;;0.44;100.00
49779;BME280;36217;60.232;24.776;2023-02-15T01:55:42;102284.07;;;0.43;100.00
49779;BME280;36217;60.232;24.776;2023-02-15T01:58:22;102282.77;;;0.38;100.00
49779;BME280;36217;60.232;24.776;2023-02-15T02:01:01;102282.36;;;0.82;100.00
49779;BME280;36217;60.232;24.776;2023-02-15T02:03:47;102276.64;;;0.67;100.00
49779;BME280;36217;60.232;24.776;2023-02-15T02:06:27;102276.54;;;0.31;100.00
49779;BME280;36217;60.232;24.776;2023-02-15T02:09:05;102276.39;;;0.28;100.00
49779;BME280;36217;60.232;24.776;2023-02-15T02:11:44;102277.58;;;0.30;100.00
49779;BME280;36217;60.232;24.776;2023-02-15T02:14:23;102277.78;;;0.71;100.00
49779;BME280;36217;60.232;24.776;2023-02-15T02:17:05;102275.08;;;0.12;100.00
49779;BME280;36217;60.232;24.776;2023-02-15T02:21:03;102272.29;;;0.49;100.00
49779;BME280;36217;60.232;24.776;2023-02-15T02:24:01;102266.71;;;0.26;100.00
49779;BME280;36217;60.232;24.776;2023-02-15T02:27:01;102267.99;;;0.26;100.00
49779;BME280;36217;60.232;24.776;2023-02-15T02:32:12;102266.91;;;0.12;100.00
49779;BME280;36217;60.232;24.776;2023-02-15T02:35:04;102264.84;;;0.09;100.00
49779;BME280;36217;60.232;24.776;2023-02-15T02:38:02;102264.71;;;0.15;100.00
49779;BME280;36217;60.232;24.776;2023-02-15T02:40:49;102260.83;;;0.13;100.00
49779;BME280;36217;60.232;24.776;2023-02-15T02:43:35;102261.12;;;0.35;100.00
49779;BME280;36217;60.232;24.776;2023-02-15T02:46:20;102259.57;;;0.38;100.00
49779;BME280;36217;60.232;24.776;2023-02-15T02:48:59;102263.36;;;-0.04;100.00
49779;BME280;36217;60.232;24.776;2023-02-15T02:51:37;102261.48;;;0.06;100.00
49779;BME280;36217;60.232;24.776;2023-02-15T02:54:14;102262.50;;;0.32;100.00
49779;BME280;36217;60.232;24.776;2023-02-15T02:56:52;102259.24;;;0.30;100.00
49779;BME280;36217;60.232;24.776;2023-02-15T02:59:33;102254.32;;;0.30;100.00
49779;BME280;36217;60.232;24.776;2023-02-15T03:02:28;102257.02;;;0.23;100.00
49779;BME280;36217;60.232;24.776;2023-02-15T03:05:08;102257.56;;;-0.03;100.00
49779;BME280;36217;60.232;24.776;2023-02-15T03:07:49;102254.93;;;0.23;100.00
49779;BME280;36217;60.232;24.776;2023-02-15T03:10:27;102257.33;;;-0.02;100.00
49779;BME280;36217;60.232;24.776;2023-02-15T03:13:05;102257.67;;;0.01;100.00
49779;BME280;36217;60.232;24.776;2023-02-15T03:15:44;102255.95;;;-0.05;100.00
49779;BME280;36217;60.232;24.776;2023-02-15T03:18:25;102255.27;;;0.17;100.00
49779;BME280;36217;60.232;24.776;2023-02-15T03:21:06;102251.48;;;-0.08;100.00
49779;BME280;36217;60.232;24.776;2023-02-15T03:23:45;102252.44;;;0.36;100.00
49779;BME280;36217;60.232;24.776;2023-02-15T03:26:23;102250.76;;;0.33;100.00
49779;BME280;36217;60.232;24.776;2023-02-15T03:29:02;102252.42;;;0.27;100.00
49779;BME280;36217;60.232;24.776;2023-02-15T03:31:43;102251.39;;;0.21;100.00
49779;BME280;36217;60.232;24.776;2023-02-15T03:34:22;102249.49;;;0.13;100.00
49779;BME280;36217;60.232;24.776;2023-02-15T03:37:04;102247.35;;;0.24;100.00
49779;BME280;36217;60.232;24.776;2023-02-15T03:39:49;102247.22;;;-0.11;100.00
49779;BME280;36217;60.232;24.776;2023-02-15T03:42:31;102246.14;;;-0.30;100.00
49779;BME280;36217;60.232;24.776;2023-02-15T03:45:23;102245.10;;;0.02;100.00
49779;BME280;36217;60.232;24.776;2023-02-15T03:48:03;102243.25;;;0.14;100.00
49779;BME280;36217;60.232;24.776;2023-02-15T03:50:42;102244.47;;;0.14;100.00
49779;BME280;36217;60.232;24.776;2023-02-15T03:53:21;102241.97;;;0.17;100.00
49779;BME280;36217;60.232;24.776;2023-02-15T03:56:00;102242.38;;;0.09;100.00
49779;BME280;36217;60.232;24.776;2023-02-15T03:58:37;102244.22;;;0.13;100.00
49779;BME280;36217;60.232;24.776;2023-02-15T04:01:19;102242.97;;;-0.02;100.00
49779;BME280;36217;60.232;24.776;2023-02-15T04:04:01;102243.65;;;-0.01;100.00
49779;BME280;36217;60.232;24.776;2023-02-15T04:06:40;102238.53;;;-0.30;100.00
49779;BME280;36217;60.232;24.776;2023-02-15T04:09:16;102238.98;;;0.08;100.00
49779;BME280;36217;60.232;24.776;2023-02-15T04:11:54;102238.74;;;-0.13;100.00
49779;BME280;36217;60.232;24.776;2023-02-15T04:14:31;102236.23;;;-0.38;100.00
49779;BME280;36217;60.232;24.776;2023-02-15T04:17:10;102231.58;;;-0.05;100.00
49779;BME280;36217;60.232;24.776;2023-02-15T04:19:47;102228.04;;;-0.17;100.00
49779;BME280;36217;60.232;24.776;2023-02-15T04:22:23;102227.24;;;-0.20;100.00
49779;BME280;36217;60.232;24.776;2023-02-15T04:25:00;102225.35;;;-0.58;100.00
49779;BME280;36217;60.232;24.776;2023-02-15T04:27:37;102223.26;;;-0.12;100.00
49779;BME280;36217;60.232;24.776;2023-02-15T04:30:16;102225.78;;;-0.34;100.00
49779;BME280;36217;60.232;24.776;2023-02-15T04:32:54;102221.56;;;-0.13;100.00
49779;BME280;36217;60.232;24.776;2023-02-15T04:35:31;102219.32;;;-0.04;100.00
49779;BME280;36217;60.232;24.776;2023-02-15T04:38:18;102219.30;;;0.02;100.00
49779;BME280;36217;60.232;24.776;2023-02-15T04:40:55;102218.00;;;-0.34;100.00
49779;BME280;36217;60.232;24.776;2023-02-15T04:43:32;102215.62;;;-0.09;100.00
49779;BME280;36217;60.232;24.776;2023-02-15T04:46:09;102220.69;;;-0.40;100.00
49779;BME280;36217;60.232;24.776;2023-02-15T04:48:45;102223.09;;;-0.37;100.00
49779;BME280;36217;60.232;24.776;2023-02-15T04:51:22;102218.05;;;-0.53;100.00
49779;BME280;36217;60.232;24.776;2023-02-15T04:53:59;102218.05;;;-0.35;100.00
49779;BME280;36217;60.232;24.776;2023-02-15T04:56:37;102216.78;;;-0.35;100.00
49779;BME280;36217;60.232;24.776;2023-02-15T04:59:15;102217.62;;;-0.63;100.00
49779;BME280;36217;60.232;24.776;2023-02-15T05:01:52;102219.90;;;-0.21;100.00
49779;BME280;36217;60.232;24.776;2023-02-15T05:04:29;102219.63;;;-0.22;100.00
49779;BME280;36217;60.232;24.776;2023-02-15T05:07:06;102218.30;;;-0.25;100.00
49779;BME280;36217;60.232;24.776;2023-02-15T05:09:42;102217.75;;;-0.24;100.00
49779;BME280;36217;60.232;24.776;2023-02-15T05:12:19;102219.24;;;-0.24;100.00
49779;BME280;36217;60.232;24.776;2023-02-15T05:14:56;102219.58;;;-0.09;100.00
49779;BME280;36217;60.232;24.776;2023-02-15T05:17:53;102222.74;;;-0.13;100.00
49779;BME280;36217;60.232;24.776;2023-02-15T05:20:29;102227.71;;;-0.07;100.00
49779;BME280;36217;60.232;24.776;2023-02-15T05:23:07;102231.59;;;-0.07;100.00
49779;BME280;36217;60.232;24.776;2023-02-15T05:25:46;102231.70;;;-0.04;100.00
49779;BME280;36217;60.232;24.776;2023-02-15T05:28:39;102230.66;;;-0.05;100.00
49779;BME280;36217;60.232;24.776;2023-02-15T05:31:26;102230.80;;;-0.01;100.00
49779;BME280;36217;60.232;24.776;2023-02-15T05:34:03;102235.67;;;-0.28;100.00
49779;BME280;36217;60.232;24.776;2023-02-15T05:36:41;102247.01;;;-0.26;100.00
49779;BME280;36217;60.232;24.776;2023-02-15T05:39:28;102265.21;;;-0.06;100.00
49779;BME280;36217;60.232;24.776;2023-02-15T05:42:05;102260.69;;;-0.07;100.00
49779;BME280;36217;60.232;24.776;2023-02-15T05:44:43;102258.53;;;-0.06;100.00
49779;BME280;36217;60.232;24.776;2023-02-15T05:47:20;102254.76;;;-0.29;100.00
49779;BME280;36217;60.232;24.776;2023-02-15T05:49:57;102254.26;;;-0.12;100.00
49779;BME280;36217;60.232;24.776;2023-02-15T05:52:34;102252.72;;;-0.28;100.00
49779;BME280;36217;60.232;24.776;2023-02-15T05:55:11;102251.22;;;-0.03;100.00
49779;BME280;36217;60.232;24.776;2023-02-15T05:57:48;102255.97;;;-0.03;100.00
49779;BME280;36217;60.232;24.776;2023-02-15T06:00:25;102258.01;;;-0.07;100.00
49779;BME280;36217;60.232;24.776;2023-02-15T06:03:02;102254.41;;;-0.08;100.00
49779;BME280;36217;60.232;24.776;2023-02-15T06:05:40;102253.82;;;-0.48;100.00
49779;BME280;36217;60.232;24.776;2023-02-15T06:08:17;102258.32;;;-0.16;100.00
49779;BME280;36217;60.232;24.776;2023-02-15T06:10:53;102258.63;;;-0.06;100.00
49779;BME280;36217;60.232;24.776;2023-02-15T06:13:37;102257.32;;;-0.04;100.00
49779;BME280;36217;60.232;24.776;2023-02-15T06:16:14;102249.78;;;-0.05;100.00
49779;BME280;36217;60.232;24.776;2023-02-15T06:18:56;102254.23;;;-0.03;100.00
49779;BME280;36217;60.232;24.776;2023-02-15T06:21:33;102250.96;;;-0.28;100.00
49779;BME280;36217;60.232;24.776;2023-02-15T06:24:11;102247.92;;;-0.01;100.00
49779;BME280;36217;60.232;24.776;2023-02-15T06:26:48;102244.37;;;-0.21;100.00
49779;BME280;36217;60.232;24.776;2023-02-15T06:29:25;102241.14;;;-0.24;100.00
49779;BME280;36217;60.232;24.776;2023-02-15T06:32:02;102241.19;;;-0.13;100.00
49779;BME280;36217;60.232;24.776;2023-02-15T06:34:50;102252.80;;;-0.10;100.00
49779;BME280;36217;60.232;24.776;2023-02-15T06:37:27;102240.94;;;0.02;100.00
49779;BME280;36217;60.232;24.776;2023-02-15T06:40:04;102232.32;;;0.05;100.00
49779;BME280;36217;60.232;24.776;2023-02-15T06:42:41;102236.16;;;0.20;100.00
49779;BME280;36217;60.232;24.776;2023-02-15T06:45:19;102235.50;;;0.03;100.00
49779;BME280;36217;60.232;24.776;2023-02-15T06:47:55;102232.73;;;0.38;100.00
49779;BME280;36217;60.232;24.776;2023-02-15T06:50:33;102234.03;;;0.41;100.00
49779;BME280;36217;60.232;24.776;2023-02-15T06:53:10;102229.85;;;0.42;100.00
49779;BME280;36217;60.232;24.776;2023-02-15T06:55:47;102228.39;;;0.40;100.00
49779;BME280;36217;60.232;24.776;2023-02-15T06:58:24;102225.40;;;-0.12;100.00
49779;BME280;36217;60.232;24.776;2023-02-15T07:01:01;102221.55;;;0.31;100.00
49779;BME280;36217;60.232;24.776;2023-02-15T07:03:38;102221.74;;;0.21;100.00
49779;BME280;36217;60.232;24.776;2023-02-15T07:06:15;102223.68;;;0.59;100.00
49779;BME280;36217;60.232;24.776;2023-02-15T07:08:53;102224.90;;;0.90;100.00
49779;BME280;36217;60.232;24.776;2023-02-15T07:11:30;102227.97;;;0.64;100.00
49779;BME280;36217;60.232;24.776;2023-02-15T07:14:07;102223.20;;;0.74;100.00
49779;BME280;36217;60.232;24.776;2023-02-15T07:16:44;102222.52;;;0.75;100.00
49779;BME280;36217;60.232;24.776;2023-02-15T07:19:21;102220.26;;;0.85;100.00
49779;BME280;36217;60.232;24.776;2023-02-15T07:21:57;102215.37;;;0.56;100.00
49779;BME280;36217;60.232;24.776;2023-02-15T07:24:35;102210.67;;;0.90;100.00
49779;BME280;36217;60.232;24.776;2023-02-15T07:27:12;102206.79;;;0.50;100.00
49779;BME280;36217;60.232;24.776;2023-02-15T07:29:59;102209.00;;;0.80;100.00
49779;BME280;36217;60.232;24.776;2023-02-15T07:32:37;102204.09;;;0.84;100.00
49779;BME280;36217;60.232;24.776;2023-02-15T07:35:14;102203.22;;;0.94;100.00
49779;BME280;36217;60.232;24.776;2023-02-15T07:37:51;102203.49;;;1.00;100.00
49779;BME280;36217;60.232;24.776;2023-02-15T07:40:29;102202.09;;;1.00;100.00
49779;BME280;36217;60.232;24.776;2023-02-15T07:43:06;102198.96;;;1.12;100.00
49779;BME280;36217;60.232;24.776;2023-02-15T07:45:59;102194.98;;;1.16;100.00
49779;BME280;36217;60.232;24.776;2023-02-15T07:48:36;102192.34;;;1.16;100.00
49779;BME280;36217;60.232;24.776;2023-02-15T07:51:14;102190.42;;;1.27;100.00
49779;BME280;36217;60.232;24.776;2023-02-15T07:53:51;102190.15;;;1.29;100.00
49779;BME280;36217;60.232;24.776;2023-02-15T07:56:35;102188.69;;;1.43;100.00
49779;BME280;36217;60.232;24.776;2023-02-15T07:59:12;102187.43;;;1.62;100.00
49779;BME280;36217;60.232;24.776;2023-02-15T08:01:49;102188.98;;;1.56;100.00
49779;BME280;36217;60.232;24.776;2023-02-15T08:04:26;102184.11;;;1.54;100.00
49779;BME280;36217;60.232;24.776;2023-02-15T08:07:03;102180.94;;;1.63;100.00
49779;BME280;36217;60.232;24.776;2023-02-15T08:09:40;102179.74;;;1.73;100.00
49779;BME280;36217;60.232;24.776;2023-02-15T08:12:17;102179.28;;;1.86;100.00
49779;BME280;36217;60.232;24.776;2023-02-15T08:15:04;102179.13;;;1.86;100.00
49779;BME280;36217;60.232;24.776;2023-02-15T08:17:41;102178.72;;;1.88;100.00
49779;BME280;36217;60.232;24.776;2023-02-15T08:20:18;102177.99;;;2.03;100.00
49779;BME280;36217;60.232;24.776;2023-02-15T08:22:55;102179.43;;;2.09;100.00
49779;BME280;36217;60.232;24.776;2023-02-15T08:25:32;102175.42;;;2.15;100.00
49779;BME280;36217;60.232;24.776;2023-02-15T08:28:10;102175.50;;;2.00;100.00
49779;BME280;36217;60.232;24.776;2023-02-15T08:30:47;102173.44;;;2.29;100.00
49779;BME280;36217;60.232;24.776;2023-02-15T08:33:24;102169.10;;;2.32;100.00
49779;BME280;36217;60.232;24.776;2023-02-15T08:36:02;102167.44;;;2.19;100.00
49779;BME280;36217;60.232;24.776;2023-02-15T08:38:41;102165.72;;;1.95;100.00
49779;BME280;36217;60.232;24.776;2023-02-15T08:41:19;102164.42;;;2.36;100.00
49779;BME280;36217;60.232;24.776;2023-02-15T08:43:58;102159.94;;;2.35;100.00
49779;BME280;36217;60.232;24.776;2023-02-15T08:46:36;102160.77;;;2.30;100.00
49779;BME280;36217;60.232;24.776;2023-02-15T08:49:15;102158.50;;;2.52;100.00
49779;BME280;36217;60.232;24.776;2023-02-15T08:51:53;102156.83;;;2.40;100.00
49779;BME280;36217;60.232;24.776;2023-02-15T08:54:31;102158.51;;;2.89;100.00
49779;BME280;36217;60.232;24.776;2023-02-15T08:57:07;102160.23;;;2.95;100.00
49779;BME280;36217;60.232;24.776;2023-02-15T08:59:44;102162.63;;;2.52;100.00
49779;BME280;36217;60.232;24.776;2023-02-15T09:02:21;102159.54;;;2.58;100.00
49779;BME280;36217;60.232;24.776;2023-02-15T09:04:57;102157.87;;;2.65;100.00
49779;BME280;36217;60.232;24.776;2023-02-15T09:07:34;102160.21;;;2.40;100.00
49779;BME280;36217;60.232;24.776;2023-02-15T09:10:11;102158.07;;;2.76;100.00
49779;BME280;36217;60.232;24.776;2023-02-15T09:12:49;102158.12;;;2.78;100.00
49779;BME280;36217;60.232;24.776;2023-02-15T09:15:36;102156.47;;;2.59;100.00
49779;BME280;36217;60.232;24.776;2023-02-15T09:18:13;102159.31;;;2.41;100.00
49779;BME280;36217;60.232;24.776;2023-02-15T09:20:49;102164.56;;;2.33;100.00
49779;BME280;36217;60.232;24.776;2023-02-15T09:23:27;102169.54;;;2.39;100.00
49779;BME280;36217;60.232;24.776;2023-02-15T09:26:07;102166.81;;;2.43;100.00
49779;BME280;36217;60.232;24.776;2023-02-15T09:28:46;102167.22;;;2.44;100.00
49779;BME280;36217;60.232;24.776;2023-02-15T09:31:25;102164.52;;;2.47;100.00
49779;BME280;36217;60.232;24.776;2023-02-15T09:34:03;102162.97;;;2.25;100.00
49779;BME280;36217;60.232;24.776;2023-02-15T09:36:41;102155.26;;;2.38;100.00
49779;BME280;36217;60.232;24.776;2023-02-15T09:39:21;102155.77;;;2.35;100.00
49779;BME280;36217;60.232;24.776;2023-02-15T09:44:23;102163.10;;;2.36;100.00
49779;BME280;36217;60.232;24.776;2023-02-15T09:47:17;102158.16;;;2.58;100.00
49779;BME280;36217;60.232;24.776;2023-02-15T09:50:05;102154.67;;;2.80;100.00
49779;BME280;36217;60.232;24.776;2023-02-15T09:52:55;102148.65;;;2.61;100.00
49779;BME280;36217;60.232;24.776;2023-02-15T09:55:55;102148.64;;;2.66;100.00
49779;BME280;36217;60.232;24.776;2023-02-15T09:58:45;102140.20;;;2.93;100.00
49779;BME280;36217;60.232;24.776;2023-02-15T10:01:28;102135.83;;;2.70;100.00
49779;BME280;36217;60.232;24.776;2023-02-15T10:04:21;102134.73;;;2.42;100.00
49779;BME280;36217;60.232;24.776;2023-02-15T10:07:12;102129.81;;;2.54;100.00
49779;BME280;36217;60.232;24.776;2023-02-15T10:10:08;102133.01;;;2.50;100.00
49779;BME280;36217;60.232;24.776;2023-02-15T10:13:04;102130.52;;;2.58;100.00
49779;BME280;36217;60.232;24.776;2023-02-15T10:15:53;102127.63;;;2.76;100.00
49779;BME280;36217;60.232;24.776;2023-02-15T10:18:46;102120.52;;;2.82;100.00
49779;BME280;36217;60.232;24.776;2023-02-15T10:21:38;102118.85;;;2.63;100.00
49779;BME280;36217;60.232;24.776;2023-02-15T10:24:33;102121.56;;;2.92;100.00
49779;BME280;36217;60.232;24.776;2023-02-15T10:27:18;102121.55;;;2.49;100.00
49779;BME280;36217;60.232;24.776;2023-02-15T10:30:05;102120.10;;;3.04;100.00
49779;BME280;36217;60.232;24.776;2023-02-15T10:32:53;102123.74;;;2.67;100.00
49779;BME280;36217;60.232;24.776;2023-02-15T10:35:43;102123.94;;;2.76;100.00
49779;BME280;36217;60.232;24.776;2023-02-15T10:38:32;102124.69;;;2.74;100.00
49779;BME280;36217;60.232;24.776;2023-02-15T10:41:25;102126.00;;;3.28;100.00
49779;BME280;36217;60.232;24.776;2023-02-15T10:44:20;102124.48;;;2.58;100.00
49779;BME280;36217;60.232;24.776;2023-02-15T10:47:15;102126.60;;;3.00;100.00
49779;BME280;36217;60.232;24.776;2023-02-15T10:50:06;102135.57;;;2.54;100.00
49779;BME280;36217;60.232;24.776;2023-02-15T10:52:58;102131.98;;;2.64;100.00
49779;BME280;36217;60.232;24.776;2023-02-15T10:55:56;102129.74;;;2.58;100.00
49779;BME280;36217;60.232;24.776;2023-02-15T10:58:48;102131.47;;;2.55;100.00
49779;BME280;36217;60.232;24.776;2023-02-15T11:01:32;102131.83;;;2.64;100.00
49779;BME280;36217;60.232;24.776;2023-02-15T11:04:37;102127.23;;;3.05;100.00
49779;BME280;36217;60.232;24.776;2023-02-15T11:07:22;102126.78;;;3.21;100.00
49779;BME280;36217;60.232;24.776;2023-02-15T11:10:07;102124.66;;;3.09;100.00
49779;BME280;36217;60.232;24.776;2023-02-15T11:10:29;102123.07;;;3.18;100.00
49779;BME280;36217;60.232;24.776;2023-02-15T11:13:11;102123.94;;;2.66;100.00
49779;BME280;36217;60.232;24.776;2023-02-15T11:15:53;102125.18;;;2.88;100.00
49779;BME280;36217;60.232;24.776;2023-02-15T11:18:40;102125.60;;;3.07;100.00
49779;BME280;36217;60.232;24.776;2023-02-15T11:21:24;102128.15;;;3.04;100.00
49779;BME280;36217;60.232;24.776;2023-02-15T11:24:07;102122.43;;;3.16;100.00
49779;BME280;36217;60.232;24.776;2023-02-15T11:26:48;102127.72;;;2.71;100.00
49779;BME280;36217;60.232;24.776;2023-02-15T11:29:31;102123.97;;;2.57;100.00
49779;BME280;36217;60.232;24.776;2023-02-15T11:32:20;102122.43;;;3.04;100.00
49779;BME280;36217;60.232;24.776;2023-02-15T11:35:01;102124.13;;;3.06;100.00
49779;BME280;36217;60.232;24.776;2023-02-15T11:37:45;102119.48;;;2.82;100.00
49779;BME280;36217;60.232;24.776;2023-02-15T11:40:27;102120.59;;;3.10;100.00
49779;BME280;36217;60.232;24.776;2023-02-15T11:43:11;102124.73;;;2.80;100.00
49779;BME280;36217;60.232;24.776;2023-02-15T11:45:51;102121.76;;;2.81;100.00
49779;BME280;36217;60.232;24.776;2023-02-15T11:48:28;102124.78;;;3.04;100.00
49779;BME280;36217;60.232;24.776;2023-02-15T11:51:08;102119.15;;;3.18;100.00
49779;BME280;36217;60.232;24.776;2023-02-15T11:53:48;102122.28;;;2.46;100.00
49779;BME280;36217;60.232;24.776;2023-02-15T11:56:36;102126.71;;;2.96;100.00
49779;BME280;36217;60.232;24.776;2023-02-15T11:59:18;102117.82;;;2.60;100.00
49779;BME280;36217;60.232;24.776;2023-02-15T12:01:58;102120.26;;;2.61;100.00
49779;BME280;36217;60.232;24.776;2023-02-15T12:04:37;102115.23;;;2.77;100.00
49779;BME280;36217;60.232;24.776;2023-02-15T12:07:20;102113.32;;;2.83;100.00
49779;BME280;36217;60.232;24.776;2023-02-15T12:10:05;102113.94;;;2.84;100.00
49779;BME280;36217;60.232;24.776;2023-02-15T12:12:53;102116.79;;;2.60;100.00
49779;BME280;36217;60.232;24.776;2023-02-15T12:15:47;102114.62;;;2.91;100.00
49779;BME280;36217;60.232;24.776;2023-02-15T12:18:33;102115.78;;;2.56;100.00
49779;BME280;36217;60.232;24.776;2023-02-15T12:21:14;102112.46;;;2.73;100.00
49779;BME280;36217;60.232;24.776;2023-02-15T12:23:53;102111.86;;;2.67;100.00
49779;BME280;36217;60.232;24.776;2023-02-15T12:26:34;102109.55;;;2.57;100.00
49779;BME280;36217;60.232;24.776;2023-02-15T12:29:20;102111.35;;;2.37;100.00
49779;BME280;36217;60.232;24.776;2023-02-15T12:31:59;102109.75;;;2.08;100.00
49779;BME280;36217;60.232;24.776;2023-02-15T12:34:38;102110.37;;;2.50;100.00
49779;BME280;36217;60.232;24.776;2023-02-15T12:37:20;102115.76;;;2.25;100.00
49779;BME280;36217;60.232;24.776;2023-02-15T12:40:01;102113.20;;;2.46;100.00
49779;BME280;36217;60.232;24.776;2023-02-15T12:42:46;102112.91;;;2.13;100.00
49779;BME280;36217;60.232;24.776;2023-02-15T12:45:27;102113.85;;;2.18;100.00
49779;BME280;36217;60.232;24.776;2023-02-15T12:48:15;102113.05;;;2.45;100.00
49779;BME280;36217;60.232;24.776;2023-02-15T12:50:53;102111.25;;;2.40;100.00
49779;BME280;36217;60.232;24.776;2023-02-15T12:53:43;102110.10;;;2.18;100.00
49779;BME280;36217;60.232;24.776;2023-02-15T12:57:23;102108.20;;;2.30;100.00
49779;BME280;36217;60.232;24.776;2023-02-15T13:00:03;102105.34;;;2.24;100.00
49779;BME280;36217;60.232;24.776;2023-02-15T13:02:46;102105.86;;;2.20;100.00
49779;BME280;36217;60.232;24.776;2023-02-15T13:05:29;102110.65;;;2.28;100.00
49779;BME280;36217;60.232;24.776;2023-02-15T13:08:09;102109.50;;;2.12;100.00
49779;BME280;36217;60.232;24.776;2023-02-15T13:10:57;102110.37;;;2.17;100.00
49779;BME280;36217;60.232;24.776;2023-02-15T13:13:38;102108.70;;;2.13;100.00
49779;BME280;36217;60.232;24.776;2023-02-15T13:16:27;102108.60;;;2.61;100.00
49779;BME280;36217;60.232;24.776;2023-02-15T13:19:09;102105.08;;;2.11;100.00
49779;BME280;36217;60.232;24.776;2023-02-15T13:21:50;102105.29;;;2.70;100.00
49779;BME280;36217;60.232;24.776;2023-02-15T13:24:30;102105.93;;;2.06;100.00
49779;BME280;36217;60.232;24.776;2023-02-15T13:27:12;102104.51;;;2.01;100.00
49779;BME280;36217;60.232;24.776;2023-02-15T13:29:54;102105.38;;;1.90;100.00
49779;BME280;36217;60.232;24.776;2023-02-15T13:32:35;102105.42;;;1.92;100.00
49779;BME280;36217;60.232;24.776;2023-02-15T13:35:19;102107.83;;;2.14;100.00
49779;BME280;36217;60.232;24.776;2023-02-15T13:38:22;102109.68;;;1.99;100.00
49779;BME280;36217;60.232;24.776;2023-02-15T13:41:20;102110.23;;;2.03;100.00
49779;BME280;36217;60.232;24.776;2023-02-15T13:44:07;102113.73;;;1.83;100.00
49779;BME280;36217;60.232;24.776;2023-02-15T13:46:57;102110.16;;;1.90;100.00
49779;BME280;36217;60.232;24.776;2023-02-15T13:49:48;102106.85;;;1.88;100.00
49779;BME280;36217;60.232;24.776;2023-02-15T13:52:28;102108.11;;;2.00;100.00
49779;BME280;36217;60.232;24.776;2023-02-15T13:55:21;102107.87;;;2.01;100.00